sensor_id;sensor_type;location;lat;lon;timestamp;pressure;altitude;pressure_sealevel;temperature;humidity
70684;BME280;58263;48.146;11.440;2023-02-03T00:00:02;96755.31;;;3.60;80.84
70684;BME280;58263;48.146;11.440;2023-02-03T00:02:27;96758.63;;;3.62;80.35
70684;BME280;58263;48.146;11.440;2023-02-03T00:04:52;96756.97;;;3.61;80.26
70684;BME280;58263;48.146;11.440;2023-02-03T00:07:18;96756.97;;;3.61;80.03
70684;BME280;58263;48.146;11.440;2023-02-03T00:09:43;96758.81;;;3.60;80.65
70684;BME280;58263;48.146;11.440;2023-02-03T00:12:08;96760.31;;;3.63;79.91
70684;BME280;58263;48.146;11.440;2023-02-03T00:14:34;96770.06;;;3.62;80.11
70684;BME280;58263;48.146;11.440;2023-02-03T00:17:01;96769.25;;;3.62;80.27
70684;BME280;58263;48.146;11.440;2023-02-03T00:19:27;96770.06;;;3.62;79.78
70684;BME280;58263;48.146;11.440;2023-02-03T00:21:52;96767.41;;;3.62;79.79
70684;BME280;58263;48.146;11.440;2023-02-03T00:24:17;96758.13;;;3.66;79.46
70684;BME280;58263;48.146;11.440;2023-02-03T00:26:44;96746.88;;;3.64;79.30
70684;BME280;58263;48.146;11.440;2023-02-03T00:29:10;96763.63;;;3.65;79.08
70684;BME280;58263;48.146;11.440;2023-02-03T00:31:35;96746.72;;;3.66;79.35
70684;BME280;58263;48.146;11.440;2023-02-03T00:34:01;96747.53;;;3.66;79.14
70684;BME280;58263;48.146;11.440;2023-02-03T00:36:26;96743.88;;;3.67;79.48
70684;BME280;58263;48.146;11.440;2023-02-03T00:38:52;96738.59;;;3.67;78.51
70684;BME280;58263;48.146;11.440;2023-02-03T00:41:19;96749.84;;;3.69;78.72
70684;BME280;58263;48.146;11.440;2023-02-03T00:43:44;96748.69;;;3.72;78.41
70684;BME280;58263;48.146;11.440;2023-02-03T00:46:10;96749.72;;;3.71;78.52
70684;BME280;58263;48.146;11.440;2023-02-03T00:48:35;96748.53;;;3.73;78.69
70684;BME280;58263;48.146;11.440;2023-02-03T00:51:01;96750.38;;;3.73;78.23
70684;BME280;58263;48.146;11.440;2023-02-03T00:53:26;96748.88;;;3.70;77.98
70684;BME280;58263;48.146;11.440;2023-02-03T00:55:51;96735.94;;;3.76;77.73
70684;BME280;58263;48.146;11.440;2023-02-03T00:58:16;96745.06;;;3.73;77.74
70684;BME280;58263;48.146;11.440;2023-02-03T01:00:42;96740.44;;;3.75;77.79
70684;BME280;58263;48.146;11.440;2023-02-03T01:03:07;96747.72;;;3.73;78.05
70684;BME280;58263;48.146;11.440;2023-02-03T01:05:33;96756.34;;;3.75;77.92
70684;BME280;58263;48.146;11.440;2023-02-03T01:08:00;96756.50;;;3.73;77.22
70684;BME280;58263;48.146;11.440;2023-02-03T01:10:25;96767.09;;;3.73;77.56
70684;BME280;58263;48.146;11.440;2023-02-03T01:12:51;96763.97;;;3.78;77.90
70684;BME280;58263;48.146;11.440;2023-02-03T01:15:16;96768.47;;;3.78;77.61
70684;BME280;58263;48.146;11.440;2023-02-03T01:17:41;96767.63;;;3.77;77.26
70684;BME280;58263;48.146;11.440;2023-02-03T01:20:07;96763.97;;;3.78;77.23
70684;BME280;58263;48.146;11.440;2023-02-03T01:22:33;96762.47;;;3.76;77.61
70684;BME280;58263;48.146;11.440;2023-02-03T01:24:58;96774.28;;;3.81;77.37
70684;BME280;58263;48.146;11.440;2023-02-03T01:27:23;96774.75;;;3.77;77.35
70684;BME280;58263;48.146;11.440;2023-02-03T01:29:48;96760.50;;;3.78;77.11
70684;BME280;58263;48.146;11.440;2023-02-03T01:32:14;96756.84;;;3.79;77.06
70684;BME280;58263;48.146;11.440;2023-02-03T01:34:39;96755.22;;;3.78;77.59
70684;BME280;58263;48.146;11.440;2023-02-03T01:37:04;96756.53;;;3.82;77.13
70684;BME280;58263;48.146;11.440;2023-02-03T01:39:30;96751.88;;;3.84;77.21
70684;BME280;58263;48.146;11.440;2023-02-03T01:41:55;96741.28;;;3.84;77.16
70684;BME280;58263;48.146;11.440;2023-02-03T01:44:40;96748.56;;;3.82;76.28
70684;BME280;58263;48.146;11.440;2023-02-03T01:47:20;96745.59;;;3.85;77.02
70684;BME280;58263;48.146;11.440;2023-02-03T01:49:48;96734.13;;;3.84;76.72
70684;BME280;58263;48.146;11.440;2023-02-03T01:52:17;96736.47;;;3.87;76.41
70684;BME280;58263;48.146;11.440;2023-02-03T01:54:43;96741.28;;;3.84;76.84
70684;BME280;58263;48.146;11.440;2023-02-03T01:57:16;96740.94;;;3.87;76.52
70684;BME280;58263;48.146;11.440;2023-02-03T01:59:43;96728.16;;;3.82;76.11
70684;BME280;58263;48.146;11.440;2023-02-03T02:02:10;96732.31;;;3.85;76.41
70684;BME280;58263;48.146;11.440;2023-02-03T02:04:45;96729.66;;;3.85;76.36
70684;BME280;58263;48.146;11.440;2023-02-03T02:07:13;96719.38;;;3.82;76.35
70684;BME280;58263;48.146;11.440;2023-02-03T02:09:39;96712.25;;;3.82;76.46
70684;BME280;58263;48.146;11.440;2023-02-03T02:12:04;96712.06;;;3.84;76.08
70684;BME280;58263;48.146;11.440;2023-02-03T02:14:30;96714.72;;;3.84;76.15
70684;BME280;58263;48.146;11.440;2023-02-03T02:17:10;96715.56;;;3.84;75.46
70684;BME280;58263;48.146;11.440;2023-02-03T02:25:55;96735.16;;;3.92;75.86
70684;BME280;58263;48.146;11.440;2023-02-03T02:28:52;96728.34;;;3.89;75.65
70684;BME280;58263;48.146;11.440;2023-02-03T02:34:21;96723.03;;;3.89;76.09
70684;BME280;58263;48.146;11.440;2023-02-03T02:37:06;96731.66;;;3.91;75.71
70684;BME280;58263;48.146;11.440;2023-02-03T02:42:37;96737.81;;;3.92;75.46
70684;BME280;58263;48.146;11.440;2023-02-03T02:45:14;96728.19;;;3.91;75.23
70684;BME280;58263;48.146;11.440;2023-02-03T02:47:40;96741.44;;;3.91;75.33
70684;BME280;58263;48.146;11.440;2023-02-03T02:50:19;96743.59;;;3.95;75.21
70684;BME280;58263;48.146;11.440;2023-02-03T02:52:48;96744.63;;;3.94;75.58
70684;BME280;58263;48.146;11.440;2023-02-03T02:55:22;96738.16;;;3.97;75.08
70684;BME280;58263;48.146;11.440;2023-02-03T02:57:54;96728.53;;;3.96;75.56
70684;BME280;58263;48.146;11.440;2023-02-03T03:00:20;96727.69;;;3.95;75.19
70684;BME280;58263;48.146;11.440;2023-02-03T03:02:46;96721.03;;;3.99;74.86
70684;BME280;58263;48.146;11.440;2023-02-03T03:05:12;96730.69;;;4.00;74.94
70684;BME280;58263;48.146;11.440;2023-02-03T03:07:58;96724.72;;;3.98;74.75
70684;BME280;58263;48.146;11.440;2023-02-03T03:10:29;96730.84;;;3.99;74.21
70684;BME280;58263;48.146;11.440;2023-02-03T03:13:01;96727.03;;;4.01;74.41
70684;BME280;58263;48.146;11.440;2023-02-03T03:15:30;96725.69;;;3.97;74.82
70684;BME280;58263;48.146;11.440;2023-02-03T03:18:16;96721.38;;;3.96;74.75
70684;BME280;58263;48.146;11.440;2023-02-03T03:20:45;96735.97;;;4.00;74.24
70684;BME280;58263;48.146;11.440;2023-02-03T03:23:41;96729.00;;;3.99;74.46
70684;BME280;58263;48.146;11.440;2023-02-03T03:28:46;96726.22;;;4.01;73.89
70684;BME280;58263;48.146;11.440;2023-02-03T03:31:13;96730.34;;;4.03;74.41
70684;BME280;58263;48.146;11.440;2023-02-03T03:33:39;96730.50;;;4.02;73.99
70684;BME280;58263;48.146;11.440;2023-02-03T03:36:25;96712.78;;;4.02;74.21
70684;BME280;58263;48.146;11.440;2023-02-03T03:39:05;96707.47;;;4.02;74.14
70684;BME280;58263;48.146;11.440;2023-02-03T03:41:51;96695.34;;;4.00;74.00
70684;BME280;58263;48.146;11.440;2023-02-03T03:44:24;96689.06;;;4.01;73.92
70684;BME280;58263;48.146;11.440;2023-02-03T03:46:58;96695.34;;;4.00;73.85
70684;BME280;58263;48.146;11.440;2023-02-03T03:49:27;96686.06;;;3.96;73.83
70684;BME280;58263;48.146;11.440;2023-02-03T03:51:57;96688.53;;;3.97;73.89
70684;BME280;58263;48.146;11.440;2023-02-03T03:54:26;96702.47;;;3.99;73.59
70684;BME280;58263;48.146;11.440;2023-02-03T03:59:21;96703.47;;;3.98;74.13
70684;BME280;58263;48.146;11.440;2023-02-03T04:01:50;96709.78;;;3.97;73.55
70684;BME280;58263;48.146;11.440;2023-02-03T04:04:16;96706.78;;;3.92;73.67
70684;BME280;58263;48.146;11.440;2023-02-03T04:06:42;96713.75;;;3.93;73.57
70684;BME280;58263;48.146;11.440;2023-02-03T04:09:07;96709.94;;;3.96;73.75
70684;BME280;58263;48.146;11.440;2023-02-03T04:11:33;96723.69;;;3.91;73.86
70684;BME280;58263;48.146;11.440;2023-02-03T04:14:16;96718.91;;;3.95;73.91
70684;BME280;58263;48.146;11.440;2023-02-03T04:16:42;96715.72;;;3.91;73.67
70684;BME280;58263;48.146;11.440;2023-02-03T04:19:07;96724.38;;;3.93;73.83
70684;BME280;58263;48.146;11.440;2023-02-03T04:21:32;96739.13;;;3.96;73.91
70684;BME280;58263;48.146;11.440;2023-02-03T04:23:57;96747.41;;;3.93;73.37
70684;BME280;58263;48.146;11.440;2023-02-03T04:26:23;96736.97;;;3.91;73.39
70684;BME280;58263;48.146;11.440;2023-02-03T04:28:49;96738.63;;;3.92;73.66
70684;BME280;58263;48.146;11.440;2023-02-03T04:31:14;96753.56;;;3.93;73.15
70684;BME280;58263;48.146;11.440;2023-02-03T04:33:40;96744.75;;;3.93;73.20
70684;BME280;58263;48.146;11.440;2023-02-03T04:36:05;96740.47;;;3.92;73.05
70684;BME280;58263;48.146;11.440;2023-02-03T04:38:31;96740.28;;;3.93;73.16
70684;BME280;58263;48.146;11.440;2023-02-03T04:40:57;96724.38;;;3.93;73.18
70684;BME280;58263;48.146;11.440;2023-02-03T04:43:22;96719.41;;;3.90;73.05
70684;BME280;58263;48.146;11.440;2023-02-03T04:45:48;96729.00;;;3.91;72.98
70684;BME280;58263;48.146;11.440;2023-02-03T04:48:13;96745.09;;;3.89;73.53
70684;BME280;58263;48.146;11.440;2023-02-03T04:50:38;96744.28;;;3.89;73.09
70684;BME280;58263;48.146;11.440;2023-02-03T04:53:03;96747.56;;;3.91;73.10
70684;BME280;58263;48.146;11.440;2023-02-03T04:55:29;96747.75;;;3.89;73.54
70684;BME280;58263;48.146;11.440;2023-02-03T04:57:58;96736.13;;;3.91;73.57
70684;BME280;58263;48.146;11.440;2023-02-03T05:00:25;96749.41;;;3.91;73.31
70684;BME280;58263;48.146;11.440;2023-02-03T05:02:50;96750.22;;;3.91;73.34
70684;BME280;58263;48.146;11.440;2023-02-03T05:05:16;96741.78;;;3.87;73.14
70684;BME280;58263;48.146;11.440;2023-02-03T05:07:42;96730.00;;;3.90;72.87
70684;BME280;58263;48.146;11.440;2023-02-03T05:10:07;96734.13;;;3.84;73.10
70684;BME280;58263;48.146;11.440;2023-02-03T05:12:32;96740.78;;;3.88;73.21
70684;BME280;58263;48.146;11.440;2023-02-03T05:14:58;96736.47;;;3.87;73.16
70684;BME280;58263;48.146;11.440;2023-02-03T05:17:23;96746.41;;;3.85;73.03
70684;BME280;58263;48.146;11.440;2023-02-03T05:19:48;96747.56;;;3.83;73.23
70684;BME280;58263;48.146;11.440;2023-02-03T05:22:14;96756.69;;;3.80;72.95
70684;BME280;58263;48.146;11.440;2023-02-03T05:24:39;96747.56;;;3.83;73.20
70684;BME280;58263;48.146;11.440;2023-02-03T05:27:04;96743.28;;;3.82;73.22
70684;BME280;58263;48.146;11.440;2023-02-03T05:29:30;96744.91;;;3.83;73.42
70684;BME280;58263;48.146;11.440;2023-02-03T05:31:55;96737.28;;;3.80;73.42
70684;BME280;58263;48.146;11.440;2023-02-03T05:34:20;96731.16;;;3.79;73.36
70684;BME280;58263;48.146;11.440;2023-02-03T05:36:46;96728.66;;;3.78;73.20
70684;BME280;58263;48.146;11.440;2023-02-03T05:39:11;96734.63;;;3.80;73.59
70684;BME280;58263;48.146;11.440;2023-02-03T05:41:36;96729.50;;;3.78;73.38
70684;BME280;58263;48.146;11.440;2023-02-03T05:44:24;96720.38;;;3.81;73.58
70684;BME280;58263;48.146;11.440;2023-02-03T05:46:52;96713.75;;;3.77;73.38
70684;BME280;58263;48.146;11.440;2023-02-03T05:49:17;96712.06;;;3.76;73.49
70684;BME280;58263;48.146;11.440;2023-02-03T05:51:45;96701.44;;;3.76;73.59
70684;BME280;58263;48.146;11.440;2023-02-03T05:54:10;96699.78;;;3.75;73.96
70684;BME280;58263;48.146;11.440;2023-02-03T05:56:36;96703.44;;;3.73;73.68
70684;BME280;58263;48.146;11.440;2023-02-03T05:59:02;96711.72;;;3.79;73.79
70684;BME280;58263;48.146;11.440;2023-02-03T06:01:27;96714.03;;;3.73;73.87
70684;BME280;58263;48.146;11.440;2023-02-03T06:03:53;96725.16;;;3.77;73.54
70684;BME280;58263;48.146;11.440;2023-02-03T06:06:18;96718.38;;;3.75;73.22
70684;BME280;58263;48.146;11.440;2023-02-03T06:08:43;96712.88;;;3.76;73.47
70684;BME280;58263;48.146;11.440;2023-02-03T06:11:09;96709.41;;;3.76;73.29
70684;BME280;58263;48.146;11.440;2023-02-03T06:13:34;96714.72;;;3.76;73.03
70684;BME280;58263;48.146;11.440;2023-02-03T06:16:00;96715.41;;;3.78;73.23
70684;BME280;58263;48.146;11.440;2023-02-03T06:18:26;96716.06;;;3.80;73.12
70684;BME280;58263;48.146;11.440;2023-02-03T06:20:51;96707.28;;;3.79;73.08
70684;BME280;58263;48.146;11.440;2023-02-03T06:23:17;96717.72;;;3.81;73.17
70684;BME280;58263;48.146;11.440;2023-02-03T06:25:46;96722.69;;;3.84;73.03
70684;BME280;58263;48.146;11.440;2023-02-03T06:28:12;96727.47;;;3.80;72.91
70684;BME280;58263;48.146;11.440;2023-02-03T06:30:37;96746.41;;;3.85;72.76
70684;BME280;58263;48.146;11.440;2023-02-03T06:33:03;96748.88;;;3.79;73.02
70684;BME280;58263;48.146;11.440;2023-02-03T06:35:28;96745.94;;;3.82;72.81
70684;BME280;58263;48.146;11.440;2023-02-03T06:37:53;96710.59;;;3.81;72.84
70684;BME280;58263;48.146;11.440;2023-02-03T06:40:19;96705.44;;;3.80;72.79
70684;BME280;58263;48.146;11.440;2023-02-03T06:42:48;96695.81;;;3.79;73.19
70684;BME280;58263;48.146;11.440;2023-02-03T06:45:14;96703.47;;;3.82;73.02
70684;BME280;58263;48.146;11.440;2023-02-03T06:47:40;96690.50;;;3.79;73.04
70684;BME280;58263;48.146;11.440;2023-02-03T06:50:07;96709.09;;;3.79;73.14
70684;BME280;58263;48.146;11.440;2023-02-03T06:52:32;96719.03;;;3.77;73.21
70684;BME280;58263;48.146;11.440;2023-02-03T06:54:58;96725.69;;;3.81;73.07
70684;BME280;58263;48.146;11.440;2023-02-03T06:57:23;96729.31;;;3.80;73.28
70684;BME280;58263;48.146;11.440;2023-02-03T06:59:48;96736.28;;;3.81;73.22
70684;BME280;58263;48.146;11.440;2023-02-03T07:02:14;96740.94;;;3.87;73.35
70684;BME280;58263;48.146;11.440;2023-02-03T07:04:39;96745.75;;;3.83;72.92
70684;BME280;58263;48.146;11.440;2023-02-03T07:07:05;96755.72;;;3.89;73.03
70684;BME280;58263;48.146;11.440;2023-02-03T07:09:30;96721.72;;;3.85;73.27
70684;BME280;58263;48.146;11.440;2023-02-03T07:11:55;96723.03;;;3.89;72.95
70684;BME280;58263;48.146;11.440;2023-02-03T07:14:21;96724.72;;;3.90;73.24
70684;BME280;58263;48.146;11.440;2023-02-03T07:16:46;96714.41;;;3.87;73.00
70684;BME280;58263;48.146;11.440;2023-02-03T07:19:11;96728.34;;;3.97;72.39
70684;BME280;58263;48.146;11.440;2023-02-03T07:21:37;96715.91;;;3.98;72.69
70684;BME280;58263;48.146;11.440;2023-02-03T07:24:02;96711.75;;;3.95;72.74
70684;BME280;58263;48.146;11.440;2023-02-03T07:26:28;96710.75;;;3.96;72.00
70684;BME280;58263;48.146;11.440;2023-02-03T07:28:53;96701.00;;;3.97;72.39
70684;BME280;58263;48.146;11.440;2023-02-03T07:31:18;96694.34;;;4.01;72.15
70684;BME280;58263;48.146;11.440;2023-02-03T07:33:44;96704.13;;;4.09;73.05
70684;BME280;58263;48.146;11.440;2023-02-03T07:36:10;96698.81;;;4.17;72.25
70684;BME280;58263;48.146;11.440;2023-02-03T07:38:36;96682.88;;;4.17;71.15
70684;BME280;58263;48.146;11.440;2023-02-03T07:41:04;96673.28;;;4.24;71.29
70684;BME280;58263;48.146;11.440;2023-02-03T07:43:30;96675.75;;;4.26;70.56
70684;BME280;58263;48.146;11.440;2023-02-03T07:45:55;96669.59;;;4.25;70.15
70684;BME280;58263;48.146;11.440;2023-02-03T07:48:30;96688.53;;;4.30;70.55
70684;BME280;58263;48.146;11.440;2023-02-03T07:50:56;96682.41;;;4.30;70.30
70684;BME280;58263;48.146;11.440;2023-02-03T07:53:21;96684.88;;;4.31;69.99
70684;BME280;58263;48.146;11.440;2023-02-03T07:55:46;96680.91;;;4.35;70.14
70684;BME280;58263;48.146;11.440;2023-02-03T07:58:12;96657.31;;;4.40;69.84
70684;BME280;58263;48.146;11.440;2023-02-03T08:00:37;96666.28;;;4.39;69.16
70684;BME280;58263;48.146;11.440;2023-02-03T08:03:02;96669.25;;;4.45;69.06
70684;BME280;58263;48.146;11.440;2023-02-03T08:05:28;96679.53;;;4.48;68.77
70684;BME280;58263;48.146;11.440;2023-02-03T08:07:54;96681.84;;;4.51;68.98
70684;BME280;58263;48.146;11.440;2023-02-03T08:10:20;96682.84;;;4.50;68.77
70684;BME280;58263;48.146;11.440;2023-02-03T08:12:45;96676.06;;;4.55;68.92
70684;BME280;58263;48.146;11.440;2023-02-03T08:15:11;96680.53;;;4.55;68.17
70684;BME280;58263;48.146;11.440;2023-02-03T08:17:37;96698.47;;;4.61;68.56
70684;BME280;58263;48.146;11.440;2023-02-03T08:20:04;96716.53;;;4.66;68.10
70684;BME280;58263;48.146;11.440;2023-02-03T08:22:30;96713.72;;;4.67;67.76
70684;BME280;58263;48.146;11.440;2023-02-03T08:24:55;96714.56;;;4.68;67.75
70684;BME280;58263;48.146;11.440;2023-02-03T08:27:21;96707.06;;;4.71;67.79
70684;BME280;58263;48.146;11.440;2023-02-03T08:29:47;96701.41;;;4.74;67.71
70684;BME280;58263;48.146;11.440;2023-02-03T08:32:15;96702.59;;;4.72;67.58
70684;BME280;58263;48.146;11.440;2023-02-03T08:34:42;96702.59;;;4.72;67.46
70684;BME280;58263;48.146;11.440;2023-02-03T08:37:09;96695.75;;;4.78;67.48
70684;BME280;58263;48.146;11.440;2023-02-03T08:39:34;96695.94;;;4.76;66.89
70684;BME280;58263;48.146;11.440;2023-02-03T08:42:00;96719.00;;;4.76;66.59
70684;BME280;58263;48.146;11.440;2023-02-03T08:44:28;96718.81;;;4.77;67.44
70684;BME280;58263;48.146;11.440;2023-02-03T08:46:53;96742.28;;;4.73;67.54
70684;BME280;58263;48.146;11.440;2023-02-03T08:49:19;96718.00;;;4.77;66.87
70684;BME280;58263;48.146;11.440;2023-02-03T08:51:46;96685.94;;;4.78;66.81
70684;BME280;58263;48.146;11.440;2023-02-03T08:54:12;96677.47;;;4.83;67.15
70684;BME280;58263;48.146;11.440;2023-02-03T08:56:37;96670.81;;;4.87;66.61
70684;BME280;58263;48.146;11.440;2023-02-03T08:59:03;96676.13;;;4.87;66.58
70684;BME280;58263;48.146;11.440;2023-02-03T09:01:28;96675.44;;;4.93;66.50
70684;BME280;58263;48.146;11.440;2023-02-03T09:03:53;96677.28;;;4.93;66.24
70684;BME280;58263;48.146;11.440;2023-02-03T09:06:19;96669.94;;;4.95;66.08
70684;BME280;58263;48.146;11.440;2023-02-03T09:08:45;96658.13;;;4.97;65.78
70684;BME280;58263;48.146;11.440;2023-02-03T09:11:12;96672.75;;;5.01;65.90
70684;BME280;58263;48.146;11.440;2023-02-03T09:13:39;96678.06;;;5.01;66.01
70684;BME280;58263;48.146;11.440;2023-02-03T09:16:08;96673.59;;;5.02;65.91
70684;BME280;58263;48.146;11.440;2023-02-03T09:18:33;96670.75;;;5.03;66.02
70684;BME280;58263;48.146;11.440;2023-02-03T09:21:00;96662.44;;;5.06;65.47
70684;BME280;58263;48.146;11.440;2023-02-03T09:23:26;96674.03;;;5.14;65.49
70684;BME280;58263;48.146;11.440;2023-02-03T09:25:51;96676.00;;;5.20;64.98
70684;BME280;58263;48.146;11.440;2023-02-03T09:28:17;96674.34;;;5.19;65.52
70684;BME280;58263;48.146;11.440;2023-02-03T09:30:42;96669.34;;;5.24;64.66
70684;BME280;58263;48.146;11.440;2023-02-03T09:33:07;96667.31;;;5.26;65.16
70684;BME280;58263;48.146;11.440;2023-02-03T09:35:33;96675.97;;;5.28;65.29
70684;BME280;58263;48.146;11.440;2023-02-03T09:37:58;96683.09;;;5.36;64.74
70684;BME280;58263;48.146;11.440;2023-02-03T09:40:29;96665.59;;;5.41;64.76
70684;BME280;58263;48.146;11.440;2023-02-03T09:43:04;96664.88;;;5.48;64.90
70684;BME280;58263;48.146;11.440;2023-02-03T09:45:33;96669.19;;;5.49;64.86
70684;BME280;58263;48.146;11.440;2023-02-03T09:48:11;96661.53;;;5.54;64.37
70684;BME280;58263;48.146;11.440;2023-02-03T09:50:40;96680.28;;;5.61;64.04
70684;BME280;58263;48.146;11.440;2023-02-03T09:53:11;96685.94;;;5.57;63.67
70684;BME280;58263;48.146;11.440;2023-02-03T09:55:42;96670.69;;;5.74;64.00
70684;BME280;58263;48.146;11.440;2023-02-03T09:58:12;96687.16;;;5.78;63.24
70684;BME280;58263;48.146;11.440;2023-02-03T10:03:32;96666.44;;;5.88;62.88
70684;BME280;58263;48.146;11.440;2023-02-03T10:06:08;96665.50;;;5.81;63.13
70684;BME280;58263;48.146;11.440;2023-02-03T10:12:15;96676.09;;;5.89;62.96
70684;BME280;58263;48.146;11.440;2023-02-03T10:17:37;96677.69;;;5.75;63.17
70684;BME280;58263;48.146;11.440;2023-02-03T10:22:42;96692.94;;;5.82;63.25
70684;BME280;58263;48.146;11.440;2023-02-03T10:25:26;96677.44;;;5.85;63.03
70684;BME280;58263;48.146;11.440;2023-02-03T10:27:58;96679.69;;;5.97;62.60
70684;BME280;58263;48.146;11.440;2023-02-03T10:30:31;96666.53;;;6.03;62.34
70684;BME280;58263;48.146;11.440;2023-02-03T10:33:10;96665.63;;;6.11;62.38
70684;BME280;58263;48.146;11.440;2023-02-03T10:35:49;96667.44;;;6.11;62.06
70684;BME280;58263;48.146;11.440;2023-02-03T10:38:46;96666.75;;;6.17;62.15
70684;BME280;58263;48.146;11.440;2023-02-03T10:41:17;96690.38;;;6.20;61.16
70684;BME280;58263;48.146;11.440;2023-02-03T10:43:45;96644.44;;;6.18;60.74
70684;BME280;58263;48.146;11.440;2023-02-03T10:46:26;96652.63;;;6.16;61.36
70684;BME280;58263;48.146;11.440;2023-02-03T10:48:51;96654.88;;;6.04;60.87
70684;BME280;58263;48.146;11.440;2023-02-03T10:51:18;96648.81;;;6.11;61.24
70684;BME280;58263;48.146;11.440;2023-02-03T10:53:44;96647.38;;;6.23;61.17
70684;BME280;58263;48.146;11.440;2023-02-03T10:56:13;96646.00;;;6.27;61.13
70684;BME280;58263;48.146;11.440;2023-02-03T10:58:45;96669.28;;;6.33;60.70
70684;BME280;58263;48.146;11.440;2023-02-03T11:01:13;96670.72;;;6.21;60.42
70684;BME280;58263;48.146;11.440;2023-02-03T11:03:53;96651.25;;;6.35;60.16
70684;BME280;58263;48.146;11.440;2023-02-03T11:06:19;96675.31;;;6.27;59.85
70684;BME280;58263;48.146;11.440;2023-02-03T11:08:47;96661.75;;;6.37;59.83
70684;BME280;58263;48.146;11.440;2023-02-03T11:13:51;96654.50;;;6.46;59.34
70684;BME280;58263;48.146;11.440;2023-02-03T11:16:18;96646.88;;;6.42;59.13
70684;BME280;58263;48.146;11.440;2023-02-03T11:19:15;96639.59;;;6.36;59.08
70684;BME280;58263;48.146;11.440;2023-02-03T11:21:51;96634.94;;;6.53;59.22
70684;BME280;58263;48.146;11.440;2023-02-03T11:24:44;96615.63;;;6.66;58.82
70684;BME280;58263;48.146;11.440;2023-02-03T11:27:15;96632.28;;;6.83;57.88
70684;BME280;58263;48.146;11.440;2023-02-03T11:29:44;96628.50;;;6.77;57.54
70684;BME280;58263;48.146;11.440;2023-02-03T11:32:30;96613.31;;;6.93;57.69
70684;BME280;58263;48.146;11.440;2023-02-03T11:35:17;96621.81;;;6.82;57.24
70684;BME280;58263;48.146;11.440;2023-02-03T11:37:46;96597.31;;;6.93;57.24
70684;BME280;58263;48.146;11.440;2023-02-03T11:47:51;96585.56;;;7.24;56.20
70684;BME280;58263;48.146;11.440;2023-02-03T12:09:38;96565.75;;;6.97;56.96
70684;BME280;58263;48.146;11.440;2023-02-03T12:20:39;96554.69;;;6.78;57.30
70684;BME280;58263;48.146;11.440;2023-02-03T12:25:56;96560.66;;;6.65;57.50
70684;BME280;58263;48.146;11.440;2023-02-03T12:31:41;96521.72;;;6.49;57.74
70684;BME280;58263;48.146;11.440;2023-02-03T12:36:39;96527.97;;;6.41;57.99
70684;BME280;58263;48.146;11.440;2023-02-03T12:39:13;96508.69;;;6.39;58.15
70684;BME280;58263;48.146;11.440;2023-02-03T12:41:47;96502.50;;;6.39;58.08
70684;BME280;58263;48.146;11.440;2023-02-03T12:44:21;96522.72;;;6.48;58.34
70684;BME280;58263;48.146;11.440;2023-02-03T12:46:57;96512.97;;;6.40;58.06
70684;BME280;58263;48.146;11.440;2023-02-03T12:49:32;96490.28;;;6.45;58.21
70684;BME280;58263;48.146;11.440;2023-02-03T12:52:04;96509.97;;;6.43;58.33
70684;BME280;58263;48.146;11.440;2023-02-03T12:54:40;96485.69;;;6.38;58.60
70684;BME280;58263;48.146;11.440;2023-02-03T12:57:19;96486.06;;;6.35;58.39
70684;BME280;58263;48.146;11.440;2023-02-03T13:00:18;96481.38;;;6.37;58.41
70684;BME280;58263;48.146;11.440;2023-02-03T13:02:51;96480.81;;;6.42;58.58
70684;BME280;58263;48.146;11.440;2023-02-03T13:05:25;96462.25;;;6.34;58.44
70684;BME280;58263;48.146;11.440;2023-02-03T13:08:00;96474.50;;;6.28;58.81
70684;BME280;58263;48.146;11.440;2023-02-03T13:10:49;96475.78;;;6.17;59.06
70684;BME280;58263;48.146;11.440;2023-02-03T13:13:25;96478.63;;;6.16;59.74
70684;BME280;58263;48.146;11.440;2023-02-03T13:15:53;96472.84;;;6.12;59.69
70684;BME280;58263;48.146;11.440;2023-02-03T13:18:38;96456.41;;;6.23;60.06
70684;BME280;58263;48.146;11.440;2023-02-03T13:21:10;96447.75;;;6.21;59.90
70684;BME280;58263;48.146;11.440;2023-02-03T13:23:38;96449.59;;;6.21;59.99
70684;BME280;58263;48.146;11.440;2023-02-03T13:39:59;96450.34;;;6.15;60.45
70684;BME280;58263;48.146;11.440;2023-02-03T13:42:29;96440.34;;;6.17;60.27
70684;BME280;58263;48.146;11.440;2023-02-03T13:45:44;96442.09;;;6.09;60.17
70684;BME280;58263;48.146;11.440;2023-02-03T13:47:50;96421.13;;;6.06;60.60
70684;BME280;58263;48.146;11.440;2023-02-03T13:50:21;96423.00;;;6.06;60.50
70684;BME280;58263;48.146;11.440;2023-02-03T13:52:59;96422.59;;;6.09;60.65
70684;BME280;58263;48.146;11.440;2023-02-03T13:58:00;96422.81;;;6.07;60.73
70684;BME280;58263;48.146;11.440;2023-02-03T14:03:39;96426.91;;;5.95;60.78
70684;BME280;58263;48.146;11.440;2023-02-03T14:06:09;96411.31;;;5.92;61.07
70684;BME280;58263;48.146;11.440;2023-02-03T14:08:58;96427.28;;;5.92;60.74
70684;BME280;58263;48.146;11.440;2023-02-03T14:16:39;96398.63;;;5.94;60.69
70684;BME280;58263;48.146;11.440;2023-02-03T14:19:09;96392.69;;;5.92;60.64
70684;BME280;58263;48.146;11.440;2023-02-03T14:21:44;96376.31;;;5.95;60.52
70684;BME280;58263;48.146;11.440;2023-02-03T14:24:12;96385.31;;;5.94;60.75
70684;BME280;58263;48.146;11.440;2023-02-03T14:26:44;96386.31;;;5.93;60.81
70684;BME280;58263;48.146;11.440;2023-02-03T14:29:31;96390.19;;;5.90;60.90
70684;BME280;58263;48.146;11.440;2023-02-03T14:37:09;96423.78;;;5.91;60.75
70684;BME280;58263;48.146;11.440;2023-02-03T14:39:46;96431.50;;;5.86;60.93
70684;BME280;58263;48.146;11.440;2023-02-03T14:45:15;96423.53;;;5.86;61.18
70684;BME280;58263;48.146;11.440;2023-02-03T14:48:03;96413.22;;;5.83;60.69
70684;BME280;58263;48.146;11.440;2023-02-03T14:51:01;96416.53;;;5.85;60.94
70684;BME280;58263;48.146;11.440;2023-02-03T14:53:40;96407.09;;;5.83;60.90
70684;BME280;58263;48.146;11.440;2023-02-03T14:56:21;96402.75;;;5.82;61.16
70684;BME280;58263;48.146;11.440;2023-02-03T14:58:55;96382.84;;;5.78;61.39